METAR Data
IDs: Format: Raw Decoded Include TAF

Data at: 1305 UTC 11 Dec 2018

KDKR 111250Z AUTO 00000KT 10SM M02/M03 A3044 RMK AO2
KDKR 111230Z AUTO 00000KT 10SM M02/M03 A3044 RMK AO2
KDKR 111210Z AUTO 00000KT 10SM M01/M02 A3043 RMK AO2
KDKR 111150Z AUTO 00000KT 10SM M01/M02 A3043 RMK AO2
KDKR 111130Z AUTO 00000KT 10SM M02/M02 A3042 RMK AO2
KDKR 111115Z AUTO 00000KT 10SM M02/M02 A3042 RMK AO2
KDKR 111050Z AUTO 00000KT 10SM M01/M02 A3042 RMK AO2
KDKR 111030Z AUTO 00000KT 10SM M02/M02 A3041 RMK AO2
KDKR 111015Z AUTO 00000KT 10SM M02/M02 A3041 RMK AO2
KDKR 110950Z AUTO 00000KT 10SM M01/M02 A3042 RMK AO2
KDKR 110930Z AUTO 00000KT 10SM M02/M02 A3043 RMK AO2
KDKR 110910Z AUTO 00000KT 10SM M01/M02 A3042 RMK AO2
KDKR 110850Z AUTO 00000KT 10SM M01/M02 A3043 RMK AO2
KDKR 110830Z AUTO 00000KT 10SM M01/M02 A3043 RMK AO2
KDKR 110810Z AUTO 00000KT 10SM M01/M02 A3043 RMK AO2
KDKR 110750Z AUTO 00000KT 10SM M01/M02 A3043 RMK AO2
KDKR 110735Z AUTO 00000KT 10SM 00/M02 A3043 RMK AO2
KDKR 110710Z AUTO 00000KT 10SM 00/M02 A3043 RMK AO2
KDKR 110650Z AUTO 00000KT 10SM 00/M01 A3043 RMK AO2
KDKR 110630Z AUTO 00000KT 10SM 00/M01 A3044 RMK AO2
KDKR 110615Z AUTO 00000KT 10SM 00/M01 A3044 RMK AO2
KDKR 110555Z AUTO 00000KT 10SM 00/00 A3043 RMK AO2
KDKR 110530Z AUTO 00000KT 10SM 00/00 A3043 RMK AO2
KDKR 110510Z AUTO 00000KT 10SM 00/00 A3043 RMK AO2
KDKR 110450Z AUTO 00000KT 10SM 00/00 A3043 RMK AO2
KDKR 110430Z AUTO 00000KT 10SM 00/00 A3043 RMK AO2
KDKR 110410Z AUTO 00000KT 10SM 01/00 A3043 RMK AO2
KDKR 110350Z AUTO 00000KT 10SM 01/00 A3043 RMK AO2
KDKR 110335Z AUTO 00000KT 10SM 01/00 A3043 RMK AO2
KDKR 110310Z AUTO 00000KT 10SM 02/00 A3042 RMK AO2
KDKR 110250Z AUTO 00000KT 10SM 02/00 A3042 RMK AO2
KDKR 110230Z AUTO 00000KT 10SM 02/01 A3043 RMK AO2
KDKR 110210Z AUTO 00000KT 10SM 02/01 A3042 RMK AO2
KDKR 110150Z AUTO 00000KT 10SM 03/02 A3042 RMK AO2
KDKR 110130Z AUTO 00000KT 10SM 03/02 A3042 RMK AO2
KDKR 110110Z AUTO 00000KT 10SM 03/02 A3041 RMK AO2
KDKR 110055Z AUTO 00000KT 10SM 04/03 A3041 RMK AO2
KDKR 110030Z AUTO 00000KT 10SM 04/03 A3041 RMK AO2
KDKR 110010Z AUTO 00000KT 10SM 05/03 A3041 RMK AO2
KDKR 102350Z AUTO 00000KT 10SM 07/03 A3040 RMK AO2
KDKR 102330Z AUTO 00000KT 10SM 07/03 A3039 RMK AO2
KDKR 102310Z AUTO 00000KT 10SM 10/01 A3039 RMK AO2
KDKR 102250Z AUTO 30003KT 10SM 11/00 A3039 RMK AO2
KDKR 102230Z AUTO 29003KT 10SM 12/00 A3038 RMK AO2
KDKR 102210Z AUTO 00000KT 10SM 12/00 A3038 RMK AO2
KDKR 102150Z AUTO 30004KT 10SM 13/00 A3038 RMK AO2
KDKR 102130Z AUTO 29003KT 10SM 13/00 A3038 RMK AO2
KDKR 102110Z AUTO 00000KT 10SM 13/00 A3037 RMK AO2
KDKR 102055Z AUTO 29004KT 10SM 13/00 A3037 RMK AO2
KDKR 102030Z AUTO 28004KT 10SM 13/00 A3037 RMK AO2
KDKR 102010Z AUTO 35005KT 10SM 13/M01 A3037 RMK AO2
KDKR 101950Z AUTO 32003KT 10SM 13/00 A3038 RMK AO2
KDKR 101930Z AUTO 36005KT 10SM 12/00 A3038 RMK AO2
KDKR 101915Z AUTO 34006KT 10SM 12/M01 A3039 RMK AO2
KDKR 101850Z AUTO 31006KT 10SM 12/M01 A3040 RMK AO2
KDKR 101830Z AUTO 28006KT 10SM 11/M01 A3040 RMK AO2
KDKR 101810Z AUTO 31005KT 10SM 10/M01 A3041 RMK AO2
KDKR 101750Z AUTO 35004KT 10SM 10/00 A3041 RMK AO2
KDKR 101730Z AUTO 32006KT 10SM 09/M01 A3042 RMK AO2
KDKR 101710Z AUTO 33004KT 10SM 09/00 A3044 RMK AO2
KDKR 101650Z AUTO 34008KT 10SM 08/00 A3044 RMK AO2
KDKR 101630Z AUTO 33007KT 10SM 08/00 A3044 RMK AO2
KDKR 101610Z AUTO 31004KT 10SM 07/00 A3045 RMK AO2
KDKR 101555Z AUTO 31005KT 10SM 07/00 A3045 RMK AO2
KDKR 101530Z AUTO 31004KT 10SM 05/01 A3044 RMK AO2
KDKR 101510Z AUTO 32005KT 10SM 04/00 A3043 RMK AO2
KDKR 101450Z AUTO 33003KT 10SM 03/01 A3042 RMK AO2
KDKR 101435Z AUTO 32004KT 10SM 02/01 A3042 RMK AO2
KDKR 101415Z AUTO 31003KT 10SM 02/00 A3042 RMK AO2
KDKR 101355Z AUTO 00000KT 8SM 00/00 A3041 RMK AO2
KDKR 101330Z AUTO 31003KT 8SM 00/00 A3041 RMK AO2
KDKR 101310Z AUTO 31003KT 9SM 00/00 A3040 RMK AO2
KDKR 101250Z AUTO 00000KT 9SM M01/M02 A3039 RMK AO2
KDKR 101230Z AUTO 00000KT 5SM BR 00/M02 A3039 RMK AO2
KDKR 101215Z AUTO 00000KT 9SM 00/M01 A3038 RMK AO2
KDKR 101150Z AUTO 00000KT 8SM 00/M01 A3038 RMK AO2
KDKR 101130Z AUTO 00000KT 9SM 00/M01 A3037 RMK AO2
KDKR 101110Z AUTO 00000KT 5SM BR 00/M01 A3037 RMK AO2
KDKR 101050Z AUTO 00000KT 1/2SM FZFG 00/M01 A3037 RMK AO2
KDKR 101035Z AUTO 00000KT 7SM 00/M01 A3036 RMK AO2
KDKR 101010Z AUTO 00000KT 5SM BR 00/00 A3036 RMK AO2
KDKR 100950Z AUTO 00000KT 5SM BR 00/M01 A3037 RMK AO2
KDKR 100930Z AUTO 00000KT 6SM BR 00/00 A3037 RMK AO2
KDKR 100910Z AUTO 00000KT 10SM 00/00 A3036 RMK AO2
KDKR 100850Z AUTO 00000KT 10SM 01/00 A3036 RMK AO2
KDKR 100830Z AUTO 31003KT 10SM 02/01 A3036 RMK AO2
KDKR 100810Z AUTO 32003KT 10SM 02/00 A3036 RMK AO2
KDKR 100750Z AUTO 32003KT 10SM 03/01 A3037 RMK AO2
KDKR 100730Z AUTO 31003KT 10SM 03/02 A3037 RMK AO2
KDKR 100710Z AUTO 32004KT 10SM 02/02 A3036 RMK AO2
KDKR 100650Z AUTO 00000KT 8SM 02/00 A3037 RMK AO2
KDKR 100630Z AUTO 32003KT 10SM 03/02 A3037 RMK AO2
KDKR 100610Z AUTO 00000KT 10SM 03/02 A3037 RMK AO2
KDKR 100550Z AUTO 32003KT 10SM 03/02 A3038 RMK AO2
KDKR 100530Z AUTO 33003KT 10SM 04/02 A3037 RMK AO2
KDKR 100515Z AUTO 31003KT 10SM 03/02 A3038 RMK AO2
KDKR 100450Z AUTO 00000KT 10SM 03/02 A3037 RMK AO2
KDKR 100430Z AUTO 00000KT 10SM 04/03 A3037 RMK AO2
KDKR 100410Z AUTO 00000KT 8SM 03/03 A3037 RMK AO2
KDKR 100355Z AUTO 00000KT 1 3/4SM BR 03/02 A3037 RMK AO2
KDKR 100330Z AUTO 00000KT 3SM BR 03/02 A3037 RMK AO2
KDKR 100310Z AUTO 00000KT 5SM BR 03/02 A3036 RMK AO2
KDKR 100250Z AUTO 00000KT 4SM BR 03/02 A3036 RMK AO2
KDKR 100230Z AUTO 00000KT 8SM 03/02 A3036 RMK AO2
KDKR 100210Z AUTO 00000KT 8SM 03/03 A3035 RMK AO2
KDKR 100150Z AUTO 00000KT 5SM BR 04/03 A3035 RMK AO2
KDKR 100135Z AUTO 00000KT 8SM 04/03 A3034 RMK AO2
KDKR 100110Z AUTO 00000KT 9SM 04/03 A3034 RMK AO2